F/V Mailys Charlie — FMIW — position and weather

sailwx.info

Track history (hours):
 
Tides and Currents Weather Stations Pressure Air Temp Water Temp Dewpoint Dewpoint Depression Visibility Wind Speed Wind Dir Waves Ship Positions

F/V Mailys Charlie

Last reported at 2016-Sep-26 13:33 UTC. Time now 2016-Sep-26 13:59 UTC.
Position N 47°21' W 002°31'.

Length 19 m.

Type: Fishing. MMSI: 228240800.

Date/timePositionNaut miles runAvg speedWind from/ knotsBaromVisibWave heightAir tempDewpointWater temp
2016-Sep-26 13:33N 47°21' W 002°31'0 0.0
2016-Sep-26 11:33N 47°21' W 002°31'0 0.0
2016-Sep-26 08:33N 47°21' W 002°31'0 0.0
2016-Sep-26 02:33N 47°21' W 002°31'0 0.0
2016-Sep-26 01:33N 47°21' W 002°31'0 0.0
2016-Sep-26 00:33N 47°21' W 002°31'0 0.0
2016-Sep-25 21:33N 47°21' W 002°31'0 0.0
2016-Sep-25 17:33N 47°21' W 002°31'0 0.0
2016-Sep-25 16:33N 47°21' W 002°31'0 0.0
2016-Sep-25 15:33N 47°21' W 002°31'0 0.0
2016-Sep-25 14:33N 47°21' W 002°31'0 0.0
2016-Sep-25 12:27N 47°21' W 002°31'0 0.0
2016-Sep-25 11:33N 47°21' W 002°31'0 0.0
2016-Sep-25 10:33N 47°21' W 002°31'0 0.0
2016-Sep-25 09:33N 47°21' W 002°31'0 0.0
2016-Sep-25 07:33N 47°21' W 002°31'0 0.0
2016-Sep-25 04:33N 47°21' W 002°31'16 3.9
2016-Sep-25 00:33N 47°18' W 002°54'19 9.6
2016-Sep-24 22:31N 47°17' W 003°22'9 9.3
2016-Sep-24 21:30N 47°19' W 003°36'19 9.8
2016-Sep-24 19:31N 47°22' W 004°04'12 9.9
2016-Sep-24 18:17N 47°24' W 004°22'8 9.6
2016-Sep-24 17:29N 47°25' W 004°33'9 9.4
2016-Sep-24 16:33N 47°25' W 004°47'  
2016-Sep-19 14:23N 51°07' W 011°47'9 9.8
2016-Sep-19 13:30N 50°59' W 011°45'  
Track history (hours):
 
Tides and Currents Weather Stations Pressure Air Temp Water Temp Dewpoint Dewpoint Depression Visibility Wind Speed Wind Dir Waves Ship Positions

F/V Mailys Charlie

Last reported at 2016-Sep-26 13:33 UTC. Time now 2016-Sep-26 13:59 UTC.
Position N 47°21' W 002°31'.

Length 19 m.

Type: Fishing. MMSI: 228240800.

Date/timePositionNaut miles runAvg speedWind from/ knotsBaromVisibWave heightAir tempDewpointWater temp
2016-Sep-26 13:33N 47°21' W 002°31'0 0.0
2016-Sep-26 11:33N 47°21' W 002°31'0 0.0
2016-Sep-26 08:33N 47°21' W 002°31'0 0.0
2016-Sep-26 02:33N 47°21' W 002°31'0 0.0
2016-Sep-26 01:33N 47°21' W 002°31'0 0.0
2016-Sep-26 00:33N 47°21' W 002°31'0 0.0
2016-Sep-25 21:33N 47°21' W 002°31'0 0.0
2016-Sep-25 17:33N 47°21' W 002°31'0 0.0
2016-Sep-25 16:33N 47°21' W 002°31'0 0.0
2016-Sep-25 15:33N 47°21' W 002°31'0 0.0
2016-Sep-25 14:33N 47°21' W 002°31'0 0.0
2016-Sep-25 12:27N 47°21' W 002°31'0 0.0
2016-Sep-25 11:33N 47°21' W 002°31'0 0.0
2016-Sep-25 10:33N 47°21' W 002°31'0 0.0
2016-Sep-25 09:33N 47°21' W 002°31'0 0.0
2016-Sep-25 07:33N 47°21' W 002°31'0 0.0
2016-Sep-25 04:33N 47°21' W 002°31'16 3.9
2016-Sep-25 00:33N 47°18' W 002°54'19 9.6
2016-Sep-24 22:31N 47°17' W 003°22'9 9.3
2016-Sep-24 21:30N 47°19' W 003°36'19 9.8
2016-Sep-24 19:31N 47°22' W 004°04'12 9.9
2016-Sep-24 18:17N 47°24' W 004°22'8 9.6
2016-Sep-24 17:29N 47°25' W 004°33'9 9.4
2016-Sep-24 16:33N 47°25' W 004°47'  
2016-Sep-19 14:23N 51°07' W 011°47'9 9.8
2016-Sep-19 13:30N 50°59' W 011°45'  

Dump ship's entire track history